createdAt,value
2018-04-25T00:00:13.009Z,17.90
2018-04-25T00:02:42.060Z,17.90
2018-04-25T00:05:12.159Z,18.00
2018-04-25T00:07:41.863Z,17.90
2018-04-25T00:10:10.856Z,17.90
2018-04-25T00:12:39.827Z,17.80
2018-04-25T00:15:09.700Z,17.60
2018-04-25T00:17:38.783Z,17.60
2018-04-25T00:20:08.643Z,17.70
2018-04-25T00:22:37.702Z,17.70
2018-04-25T00:25:06.590Z,17.80
2018-04-25T00:27:39.953Z,17.70
2018-04-25T00:30:08.972Z,17.70
2018-04-25T00:32:38.663Z,17.50
2018-04-25T00:35:08.376Z,17.50
2018-04-25T00:37:37.995Z,17.60
2018-04-25T00:40:06.975Z,17.50
2018-04-25T00:42:35.960Z,17.60
2018-04-25T00:45:05.729Z,17.50
2018-04-25T00:47:34.666Z,17.50
2018-04-25T00:50:04.778Z,17.50
2018-04-25T00:52:33.832Z,17.50
2018-04-25T00:55:02.786Z,17.60
2018-04-25T00:57:31.783Z,17.60
2018-04-25T01:00:01.659Z,17.70
2018-04-25T01:02:30.664Z,17.70
2018-04-25T01:05:00.025Z,17.50
2018-04-25T01:07:29.837Z,17.50
2018-04-25T01:09:58.781Z,17.40
2018-04-25T01:12:27.910Z,17.30
2018-04-25T01:14:56.888Z,17.30
2018-04-25T01:17:25.852Z,17.40
2018-04-25T01:19:54.899Z,17.30
2018-04-25T01:22:23.788Z,17.20
2018-04-25T01:27:52.252Z,17.10
2018-04-25T01:30:22.034Z,17.30
2018-04-25T01:32:51.772Z,17.20
2018-04-25T01:35:21.749Z,17.20
2018-04-25T01:38:07.463Z,17.20
2018-04-25T01:40:37.456Z,17.20
2018-04-25T01:43:11.380Z,17.20
2018-04-25T01:45:48.905Z,17.00
2018-04-25T01:52:06.419Z,16.90
2018-04-25T01:54:53.139Z,16.70
2018-04-25T01:57:39.822Z,16.50
2018-04-25T02:00:26.559Z,16.70
2018-04-25T02:02:55.428Z,16.40
2018-04-25T02:05:24.370Z,16.40
2018-04-25T02:07:53.329Z,16.50
2018-04-25T02:10:22.399Z,16.40
2018-04-25T02:12:51.568Z,16.40
2018-04-25T02:15:20.927Z,16.30
2018-04-25T02:17:49.779Z,16.40
2018-04-25T02:20:18.825Z,16.40
2018-04-25T02:22:47.737Z,16.30
2018-04-25T02:25:17.262Z,16.30
2018-04-25T02:27:46.168Z,16.30
2018-04-25T02:30:15.160Z,16.30
2018-04-25T02:32:44.053Z,16.30
2018-04-25T02:35:13.076Z,16.30
2018-04-25T02:37:42.000Z,16.40
2018-04-25T02:40:10.904Z,16.50
2018-04-25T02:42:39.895Z,16.20
2018-04-25T02:45:08.784Z,16.00
2018-04-25T02:47:38.467Z,16.00
2018-04-25T02:50:07.426Z,16.00
2018-04-25T02:52:36.301Z,15.90
2018-04-25T02:55:05.207Z,16.20
2018-04-25T02:57:34.263Z,16.20
2018-04-25T03:00:03.400Z,16.20
2018-04-25T03:02:32.309Z,16.20
2018-04-25T03:05:02.022Z,16.30
2018-04-25T03:07:31.728Z,16.10
2018-04-25T03:10:01.453Z,16.10
2018-04-25T03:12:30.354Z,16.00
2018-04-25T03:14:59.284Z,16.20
2018-04-25T03:17:28.188Z,16.20
2018-04-25T03:19:57.273Z,16.30
2018-04-25T03:22:26.175Z,16.30
2018-04-25T03:24:55.810Z,16.10
2018-04-25T03:27:24.768Z,16.10
2018-04-25T03:29:53.737Z,16.00
2018-04-25T03:32:22.616Z,16.20
2018-04-25T03:34:51.508Z,16.10
2018-04-25T03:37:20.610Z,15.90
2018-04-25T03:39:49.761Z,15.80
2018-04-25T03:42:18.684Z,15.80
2018-04-25T03:44:47.609Z,15.80
2018-04-25T03:47:16.476Z,15.80
2018-04-25T03:49:45.521Z,15.90
2018-04-25T03:52:14.427Z,15.90
2018-04-25T03:54:43.529Z,15.80
2018-04-25T03:57:12.647Z,15.90
2018-04-25T03:59:41.868Z,15.90
2018-04-25T04:02:10.938Z,15.90
2018-04-25T04:04:39.826Z,15.80
2018-04-25T04:07:08.901Z,15.70
2018-04-25T04:09:37.792Z,15.70
2018-04-25T04:12:07.631Z,16.10
2018-04-25T04:14:37.160Z,16.10
2018-04-25T04:17:06.052Z,16.20
2018-04-25T04:19:34.912Z,16.20
2018-04-25T04:22:03.796Z,16.50
2018-04-25T04:24:32.659Z,16.10
2018-04-25T04:27:02.307Z,16.50
2018-04-25T04:29:31.447Z,16.40
2018-04-25T04:32:00.355Z,16.70
2018-04-25T04:34:30.037Z,16.70
2018-04-25T04:36:58.940Z,16.70
2018-04-25T04:39:27.816Z,17.00
2018-04-25T04:41:56.972Z,17.10
2018-04-25T04:44:25.852Z,17.30
2018-04-25T04:46:54.767Z,17.50
2018-04-25T04:49:23.815Z,17.50
2018-04-25T04:51:53.575Z,17.60
2018-04-25T04:54:22.448Z,17.60
2018-04-25T04:56:51.555Z,17.80
2018-04-25T04:59:20.458Z,18.10
2018-04-25T05:01:49.388Z,18.30
2018-04-25T05:04:19.165Z,18.60
2018-04-25T05:06:48.056Z,18.60
2018-04-25T05:09:16.973Z,18.70
2018-04-25T05:11:45.968Z,18.80
2018-04-25T05:14:14.955Z,18.90
2018-04-25T05:16:43.868Z,19.00
2018-04-25T05:19:13.509Z,19.40
2018-04-25T05:21:42.393Z,19.40
2018-04-25T05:24:11.365Z,19.60
2018-04-25T05:26:40.323Z,19.20
2018-04-25T05:29:09.324Z,19.10
2018-04-25T05:31:38.525Z,18.70
2018-04-25T05:34:07.537Z,18.90
2018-04-25T05:36:37.419Z,19.70
2018-04-25T05:39:06.315Z,19.70
2018-04-25T05:41:35.240Z,19.70
2018-04-25T05:44:04.140Z,19.70
2018-04-25T05:46:33.167Z,19.80
2018-04-25T05:49:02.073Z,20.00
2018-04-25T05:51:31.083Z,20.30
2018-04-25T05:54:00.073Z,20.30
2018-04-25T05:56:29.713Z,21.20
2018-04-25T05:58:58.603Z,21.20
2018-04-25T06:01:27.652Z,21.50
2018-04-25T06:03:56.561Z,21.50
2018-04-25T06:06:26.228Z,21.60
2018-04-25T06:08:55.136Z,21.50
2018-04-25T06:11:24.161Z,21.60
2018-04-25T06:13:54.023Z,21.80
2018-04-25T06:16:22.939Z,21.70
2018-04-25T06:18:51.885Z,21.50
2018-04-25T06:21:21.156Z,21.60
2018-04-25T06:23:50.805Z,21.70
2018-04-25T06:26:19.733Z,21.70
2018-04-25T06:28:48.794Z,21.20
2018-04-25T06:31:17.666Z,21.10
2018-04-25T06:33:46.573Z,21.30
2018-04-25T06:36:15.462Z,21.50
2018-04-25T06:38:44.384Z,21.90
2018-04-25T06:41:13.527Z,22.30
2018-04-25T06:43:42.468Z,22.40
2018-04-25T06:46:11.385Z,22.40
2018-04-25T06:48:41.017Z,23.30
2018-04-25T06:51:09.911Z,23.30
2018-04-25T06:53:38.776Z,23.40
2018-04-25T06:56:08.418Z,23.70
2018-04-25T06:58:37.366Z,23.60
2018-04-25T07:01:06.999Z,24.00
2018-04-25T07:03:37.583Z,24.00
2018-04-25T07:06:06.448Z,24.60
2018-04-25T07:08:35.708Z,24.90
2018-04-25T07:11:05.394Z,25.30
2018-04-25T07:13:35.789Z,25.70
2018-04-25T07:16:04.754Z,25.70
2018-04-25T07:18:33.819Z,26.40
2018-04-25T07:21:03.671Z,26.50
2018-04-25T07:23:32.733Z,26.50
2018-04-25T07:26:01.648Z,26.70
2018-04-25T07:28:30.565Z,27.40
2018-04-25T07:30:59.687Z,27.60
2018-04-25T07:33:28.592Z,27.30
2018-04-25T07:35:57.629Z,27.70
2018-04-25T07:38:26.572Z,28.00
2018-04-25T07:40:55.563Z,28.00
2018-04-25T07:43:24.522Z,28.00
2018-04-25T07:45:53.475Z,27.20
2018-04-25T07:48:22.437Z,26.90
2018-04-25T07:50:51.347Z,27.40
2018-04-25T07:53:21.024Z,28.10
2018-04-25T07:55:49.979Z,28.10
2018-04-25T07:58:18.929Z,28.60
2018-04-25T08:00:47.838Z,28.80
2018-04-25T08:03:17.538Z,29.20
2018-04-25T08:05:47.323Z,30.40
2018-04-25T08:08:16.324Z,30.40
2018-04-25T08:10:46.088Z,31.50
2018-04-25T08:13:32.859Z,31.50
2018-04-25T08:16:19.529Z,31.40
2018-04-25T08:21:58.316Z,30.20
2018-04-25T08:24:28.049Z,30.50
2018-04-25T08:26:57.000Z,30.50
2018-04-25T08:29:26.181Z,31.10
2018-04-25T08:31:55.128Z,31.10
2018-04-25T08:34:24.144Z,30.90
2018-04-25T08:36:53.023Z,30.50
2018-04-25T08:39:22.058Z,30.50
2018-04-25T08:41:50.988Z,30.00
2018-04-25T08:44:20.054Z,30.10
2018-04-25T08:46:49.050Z,31.00
2018-04-25T08:49:18.040Z,30.40
2018-04-25T08:51:46.975Z,30.70
2018-04-25T08:54:15.874Z,31.40
2018-04-25T08:56:44.796Z,30.80
2018-04-25T08:59:13.829Z,31.40
2018-04-25T09:01:42.850Z,31.60
2018-04-25T09:04:11.803Z,31.80
2018-04-25T09:06:41.488Z,31.60
2018-04-25T09:09:10.487Z,31.60
2018-04-25T09:11:39.420Z,30.90
2018-04-25T09:14:08.408Z,30.30
2018-04-25T09:16:37.364Z,31.10
2018-04-25T09:19:06.311Z,31.40
2018-04-25T09:21:35.307Z,31.30
2018-04-25T09:24:04.213Z,31.40
2018-04-25T09:26:33.200Z,31.60
2018-04-25T09:29:02.889Z,32.20
2018-04-25T09:31:31.846Z,31.50
2018-04-25T09:34:01.504Z,31.10
2018-04-25T09:36:30.520Z,31.00
2018-04-25T09:38:59.540Z,31.00
2018-04-25T09:41:28.492Z,31.60
2018-04-25T09:43:57.424Z,32.20
2018-04-25T09:46:26.331Z,32.20
2018-04-25T09:48:56.020Z,31.70
2018-04-25T09:51:25.924Z,31.10
2018-04-25T09:53:54.820Z,31.00
2018-04-25T09:56:23.759Z,30.60
2018-04-25T09:58:52.708Z,31.10
2018-04-25T10:01:27.263Z,30.80
2018-04-25T10:03:56.355Z,30.20
2018-04-25T10:06:25.349Z,30.10
2018-04-25T10:08:54.237Z,30.50
2018-04-25T10:11:24.000Z,30.60
2018-04-25T10:13:52.973Z,30.60
2018-04-25T10:16:22.126Z,30.10
2018-04-25T10:18:51.779Z,30.00
2018-04-25T10:21:20.691Z,29.90
2018-04-25T10:23:49.642Z,30.50
2018-04-25T10:26:18.640Z,30.10
2018-04-25T10:28:47.856Z,30.30
2018-04-25T10:31:16.744Z,30.50
2018-04-25T10:33:45.701Z,30.20
2018-04-25T10:36:14.621Z,30.30
2018-04-25T10:38:43.716Z,30.60
2018-04-25T10:41:13.056Z,31.30
2018-04-25T10:43:43.765Z,31.10
2018-04-25T10:46:12.818Z,31.10
2018-04-25T10:48:42.725Z,30.70
2018-04-25T10:51:12.510Z,30.20
2018-04-25T10:53:41.539Z,30.20
2018-04-25T10:56:10.460Z,29.90
2018-04-25T10:58:39.368Z,29.80
2018-04-25T11:01:08.276Z,30.50
2018-04-25T11:03:37.973Z,30.40
2018-04-25T11:06:06.881Z,30.30
2018-04-25T11:08:35.947Z,30.20
2018-04-25T11:11:04.948Z,30.40
2018-04-25T11:13:33.881Z,30.60
2018-04-25T11:16:02.799Z,30.40
2018-04-25T11:18:31.797Z,30.70
2018-04-25T11:21:01.006Z,30.70
2018-04-25T11:23:29.950Z,30.90
2018-04-25T11:25:58.851Z,30.90
2018-04-25T11:28:28.499Z,29.90
2018-04-25T11:30:57.383Z,29.90
2018-04-25T11:33:26.308Z,30.30
2018-04-25T11:35:55.977Z,29.70
2018-04-25T11:38:25.180Z,29.70
2018-04-25T11:40:54.084Z,29.50
2018-04-25T11:43:22.981Z,29.20
2018-04-25T11:45:51.958Z,29.30
2018-04-25T11:48:20.976Z,29.40
2018-04-25T11:50:49.884Z,29.20
2018-04-25T11:53:19.620Z,29.40
2018-04-25T11:55:48.544Z,29.20
2018-04-25T11:58:17.504Z,28.70
2018-04-25T12:00:46.405Z,28.20
2018-04-25T12:03:15.300Z,28.00
2018-04-25T12:05:44.279Z,28.20
2018-04-25T12:08:13.225Z,28.50
2018-04-25T12:10:42.112Z,28.40
2018-04-25T12:13:11.350Z,28.60
2018-04-25T12:15:40.332Z,28.30
2018-04-25T12:18:09.992Z,28.20
2018-04-25T12:20:38.996Z,28.20
2018-04-25T12:23:07.912Z,28.60
2018-04-25T12:25:36.852Z,28.80
2018-04-25T12:28:05.822Z,28.50
2018-04-25T12:30:34.760Z,28.40
2018-04-25T12:33:03.659Z,28.70
2018-04-25T12:35:34.082Z,28.90
2018-04-25T12:38:03.290Z,28.90
2018-04-25T12:40:32.225Z,28.90
2018-04-25T12:43:01.225Z,28.70
2018-04-25T12:45:30.317Z,29.20
2018-04-25T12:48:00.084Z,29.40
2018-04-25T12:50:29.091Z,29.40
2018-04-25T12:52:58.034Z,29.40
2018-04-25T12:55:27.109Z,29.10
2018-04-25T12:57:56.041Z,29.00
2018-04-25T13:00:25.040Z,28.70
2018-04-25T13:02:54.868Z,28.90
2018-04-25T13:05:23.800Z,28.90
2018-04-25T13:07:52.710Z,29.20
2018-04-25T13:10:23.372Z,29.00
2018-04-25T13:12:52.295Z,28.90
2018-04-25T13:15:21.947Z,29.20
2018-04-25T13:17:51.201Z,29.10
2018-04-25T13:20:20.470Z,29.20
2018-04-25T13:22:49.390Z,29.20
2018-04-25T13:25:19.382Z,29.30
2018-04-25T13:27:48.300Z,29.30
2018-04-25T13:30:17.961Z,29.10
2018-04-25T13:32:46.864Z,29.00
2018-04-25T13:35:15.760Z,28.90
2018-04-25T13:37:44.669Z,28.70
2018-04-25T13:40:14.416Z,28.60
2018-04-25T13:42:43.272Z,28.60
2018-04-25T13:45:12.934Z,28.50
2018-04-25T13:47:41.863Z,28.50
2018-04-25T13:50:11.673Z,28.70
2018-04-25T13:52:40.638Z,28.70
2018-04-25T13:55:09.624Z,28.80
2018-04-25T13:57:38.524Z,28.60
2018-04-25T14:00:07.468Z,28.60
2018-04-25T14:02:36.364Z,28.70
2018-04-25T14:05:05.313Z,28.60
2018-04-25T14:07:34.217Z,28.80
2018-04-25T14:10:03.164Z,28.70
2018-04-25T14:12:32.457Z,28.60
2018-04-25T14:15:01.384Z,28.30
2018-04-25T14:17:30.299Z,28.20
2018-04-25T14:19:59.942Z,28.40
2018-04-25T14:22:28.891Z,28.40
2018-04-25T14:24:58.596Z,28.20
2018-04-25T14:27:27.730Z,28.20
2018-04-25T14:29:56.620Z,27.80
2018-04-25T14:32:25.528Z,27.90
2018-04-25T14:34:54.413Z,27.90
2018-04-25T14:37:23.382Z,27.80
2018-04-25T14:39:52.286Z,27.60
2018-04-25T14:42:21.274Z,27.60
2018-04-25T14:44:50.170Z,27.50
2018-04-25T14:47:19.074Z,27.60
2018-04-25T14:49:47.988Z,27.80
2018-04-25T14:52:16.941Z,27.60
2018-04-25T14:54:46.126Z,27.50
2018-04-25T14:57:15.192Z,27.50
2018-04-25T14:59:44.132Z,27.30
2018-04-25T15:02:13.117Z,27.30
2018-04-25T15:04:42.084Z,27.50
2018-04-25T15:07:12.466Z,27.40
2018-04-25T15:09:41.626Z,27.40
2018-04-25T15:12:10.681Z,27.50
2018-04-25T15:14:39.615Z,27.30
2018-04-25T15:17:08.569Z,27.20
2018-04-25T15:19:37.464Z,27.30
2018-04-25T15:22:06.423Z,27.50
2018-04-25T15:24:38.154Z,27.50
2018-04-25T15:27:07.126Z,27.50
2018-04-25T15:29:36.157Z,27.50
2018-04-25T15:32:05.067Z,27.40
2018-04-25T15:34:34.178Z,27.40
2018-04-25T15:37:03.290Z,27.70
2018-04-25T15:39:33.159Z,27.80
2018-04-25T15:42:02.033Z,27.80
2018-04-25T15:44:30.968Z,27.70
2018-04-25T15:46:59.900Z,27.60
2018-04-25T15:49:29.123Z,27.50
2018-04-25T15:51:58.091Z,27.60
2018-04-25T15:54:27.338Z,27.50
2018-04-25T15:56:56.348Z,27.40
2018-04-25T15:59:25.278Z,27.30
2018-04-25T16:01:54.270Z,27.30
2018-04-25T16:04:23.136Z,27.30
2018-04-25T16:06:53.091Z,27.20
2018-04-25T16:09:22.013Z,27.20
2018-04-25T16:11:51.032Z,27.20
2018-04-25T16:14:20.765Z,27.10
2018-04-25T16:16:49.696Z,27.00
2018-04-25T16:19:18.636Z,27.00
2018-04-25T16:21:48.549Z,27.10
2018-04-25T16:24:17.680Z,27.00
2018-04-25T16:26:46.572Z,27.00
2018-04-25T16:29:15.503Z,26.90
2018-04-25T16:31:44.541Z,26.90
2018-04-25T16:34:13.456Z,26.70
2018-04-25T16:36:42.423Z,26.80
2018-04-25T16:39:11.565Z,26.60
2018-04-25T16:41:40.656Z,26.50
2018-04-25T16:44:09.666Z,26.40
2018-04-25T16:46:38.725Z,26.30
2018-04-25T16:49:07.651Z,26.20
2018-04-25T16:51:36.903Z,26.30
2018-04-25T16:54:05.856Z,26.10
2018-04-25T16:56:35.744Z,25.90
2018-04-25T16:59:04.704Z,25.80
2018-04-25T17:01:33.792Z,25.70
2018-04-25T17:04:02.789Z,25.70
2018-04-25T17:06:32.080Z,25.60
2018-04-25T17:09:01.074Z,25.50
2018-04-25T17:11:30.241Z,25.50
2018-04-25T17:13:59.922Z,25.20
2018-04-25T17:16:28.840Z,25.20
2018-04-25T17:18:58.606Z,25.10
2018-04-25T17:21:27.697Z,25.10
2018-04-25T17:23:57.008Z,25.00
2018-04-25T17:26:26.882Z,25.00
2018-04-25T17:28:55.822Z,24.90
2018-04-25T17:31:24.749Z,25.00
2018-04-25T17:33:54.724Z,24.70
2018-04-25T17:36:24.463Z,24.60
2018-04-25T17:38:54.168Z,24.60
2018-04-25T17:41:23.320Z,24.50
2018-04-25T17:43:52.393Z,24.50
2018-04-25T17:46:28.130Z,24.50
2018-04-25T17:48:58.098Z,24.50
2018-04-25T17:51:27.015Z,24.40
2018-04-25T17:53:56.065Z,24.50
2018-04-25T17:56:25.105Z,24.40
2018-04-25T17:58:54.138Z,24.40
2018-04-25T18:01:23.015Z,24.30
2018-04-25T18:03:52.024Z,24.30
2018-04-25T18:06:21.028Z,24.00
2018-04-25T18:08:50.140Z,24.10
2018-04-25T18:11:19.123Z,24.00
2018-04-25T18:13:48.125Z,23.90
2018-04-25T18:16:17.242Z,23.80
2018-04-25T18:18:46.215Z,23.70
2018-04-25T18:21:15.118Z,23.70
2018-04-25T18:23:44.008Z,23.60
2018-04-25T18:26:13.148Z,23.50
2018-04-25T18:28:42.859Z,23.60
2018-04-25T18:31:12.560Z,23.50
2018-04-25T18:33:42.333Z,23.50
2018-04-25T18:36:11.340Z,23.50
2018-04-25T18:38:40.316Z,23.50
2018-04-25T18:41:09.283Z,23.40
2018-04-25T18:43:38.239Z,23.30
2018-04-25T18:46:07.128Z,23.40
2018-04-25T18:48:36.064Z,23.40
2018-04-25T18:51:05.048Z,23.30
2018-04-25T18:53:33.988Z,23.30
2018-04-25T18:56:03.000Z,23.30
2018-04-25T18:58:32.806Z,23.30
2018-04-25T19:01:01.719Z,23.30
2018-04-25T19:03:30.645Z,23.20
2018-04-25T19:05:59.555Z,23.20
2018-04-25T19:08:28.477Z,23.10
2018-04-25T19:10:57.490Z,23.10
2018-04-25T19:13:26.444Z,23.10
2018-04-25T19:15:55.360Z,23.00
2018-04-25T19:18:24.284Z,22.90
2018-04-25T19:20:53.831Z,22.90
2018-04-25T19:23:22.828Z,22.90
2018-04-25T19:25:51.803Z,22.90
2018-04-25T19:28:20.933Z,22.90
2018-04-25T19:30:50.623Z,23.00
2018-04-25T19:33:19.562Z,23.00
2018-04-25T19:35:48.489Z,22.80
2018-04-25T19:38:17.480Z,22.80
2018-04-25T19:40:46.747Z,22.90
2018-04-25T19:43:15.743Z,22.90
2018-04-25T19:45:44.740Z,22.80
2018-04-25T19:48:14.348Z,22.80
2018-04-25T19:50:43.431Z,22.80
2018-04-25T19:53:12.385Z,22.80
2018-04-25T19:55:41.383Z,22.80
2018-04-25T19:58:10.412Z,22.90
2018-04-25T20:00:39.360Z,22.70
2018-04-25T20:03:09.068Z,22.60
2018-04-25T20:05:37.975Z,22.50
2018-04-25T20:08:10.257Z,22.60
2018-04-25T20:10:39.317Z,22.60
2018-04-25T20:13:08.363Z,22.70
2018-04-25T20:15:37.413Z,22.60
2018-04-25T20:18:07.179Z,22.70
2018-04-25T20:20:36.108Z,22.70
2018-04-25T20:23:05.913Z,22.80
2018-04-25T20:25:34.972Z,22.70
2018-04-25T20:28:03.904Z,22.70
2018-04-25T20:30:32.960Z,22.60
2018-04-25T20:33:01.858Z,22.50
2018-04-25T20:35:30.780Z,22.50
2018-04-25T20:37:59.977Z,22.70
2018-04-25T20:40:28.925Z,22.80
2018-04-25T20:42:57.837Z,22.70
2018-04-25T20:45:26.869Z,22.60
2018-04-25T20:47:56.780Z,22.50
2018-04-25T20:50:27.337Z,22.50
2018-04-25T20:52:56.207Z,22.40
2018-04-25T20:55:26.180Z,22.40
2018-04-25T20:57:55.125Z,22.40
2018-04-25T21:00:24.056Z,22.60
2018-04-25T21:02:52.956Z,22.70
2018-04-25T21:05:22.114Z,22.80
2018-04-25T21:07:51.083Z,22.80
2018-04-25T21:10:20.726Z,22.80
2018-04-25T21:12:49.640Z,22.70
2018-04-25T21:15:18.787Z,22.70
2018-04-25T21:17:47.712Z,22.70
2018-04-25T21:20:16.623Z,22.70
2018-04-25T21:22:45.745Z,22.60
2018-04-25T21:25:15.466Z,22.60
2018-04-25T21:27:45.375Z,22.60
2018-04-25T21:30:14.260Z,22.60
2018-04-25T21:32:43.132Z,22.60
2018-04-25T21:35:12.117Z,22.60
2018-04-25T21:37:40.987Z,22.50
2018-04-25T21:40:10.800Z,22.40
2018-04-25T21:42:39.820Z,22.40
2018-04-25T21:45:08.688Z,22.40
2018-04-25T21:47:37.664Z,22.30
2018-04-25T21:50:06.584Z,22.30
2018-04-25T21:52:35.702Z,22.30
2018-04-25T21:55:04.668Z,22.30
2018-04-25T21:57:33.918Z,22.20
2018-04-25T22:00:03.003Z,22.20
2018-04-25T22:02:32.965Z,22.20
2018-04-25T22:05:02.041Z,22.20
2018-04-25T22:07:31.143Z,22.10
2018-04-25T22:10:00.078Z,22.20
2018-04-25T22:12:29.111Z,22.10
2018-04-25T22:14:58.022Z,22.10
2018-04-25T22:17:27.192Z,22.10
2018-04-25T22:19:56.153Z,22.10
2018-04-25T22:22:25.101Z,22.10
2018-04-25T22:24:54.004Z,22.20
2018-04-25T22:27:22.933Z,22.10
2018-04-25T22:29:51.929Z,22.10
2018-04-25T22:32:21.012Z,22.10
2018-04-25T22:34:50.845Z,22.10
2018-04-25T22:37:19.908Z,22.10
2018-04-25T22:39:48.837Z,22.00
2018-04-25T22:42:18.512Z,21.90
2018-04-25T22:44:47.389Z,21.90
2018-04-25T22:47:16.297Z,21.80
2018-04-25T22:49:45.232Z,21.80
2018-04-25T22:52:15.108Z,21.80
2018-04-25T22:54:44.336Z,21.80
2018-04-25T22:57:13.972Z,21.80
2018-04-25T22:59:42.860Z,21.80
2018-04-25T23:02:11.814Z,21.70
2018-04-25T23:04:41.475Z,21.70
2018-04-25T23:07:10.424Z,21.70
2018-04-25T23:09:40.156Z,21.80
2018-04-25T23:12:09.047Z,21.80
2018-04-25T23:14:38.185Z,21.80
2018-04-25T23:17:07.176Z,21.70
2018-04-25T23:19:36.232Z,21.80
2018-04-25T23:22:05.124Z,21.80
2018-04-25T23:24:34.155Z,21.60
2018-04-25T23:27:03.315Z,21.60
2018-04-25T23:29:32.362Z,21.50
2018-04-25T23:32:01.290Z,21.50
2018-04-25T23:34:30.153Z,21.50
2018-04-25T23:36:59.796Z,21.40
2018-04-25T23:39:28.971Z,21.40
2018-04-25T23:41:57.848Z,21.40
2018-04-25T23:44:26.752Z,21.30
2018-04-25T23:46:55.837Z,21.30
2018-04-25T23:49:25.476Z,21.30
2018-04-25T23:51:54.372Z,21.30
2018-04-25T23:54:23.360Z,21.40
2018-04-25T23:56:52.517Z,21.40
2018-04-25T23:59:21.408Z,21.30
